Schaupps, Nebraska
Current Conditions -  °F | °C
As of 8:20 AM on Saturday 22 Nov 2014 (Local Time) from KODX Reporting Station
Haze Haze  
Wind Chill: -4°   Ceiling: Unl
Heat Index: -4°   Visibility: 3mi
Dew Point: -7°   Wind: 0mph
Humidity: 84%   Direction: NA
Pressure: 29.75"   Gusts: NA
Location:  41.3°N, 98.8143°W
Report Text: KODX 221420Z AUTO 00000KT 3SM BR FEW001 M04/M07 A2975 RMK AO2 T10441067
Loading
Personal Weather Stations






























Interactive Weather Map New forecast layout! Learn more

10-Day Weather Forecast

Advertisements
Track Severe Weather on mobile